Portada
METAR-TAF:

METAR-TAF

Aeroports :

Trat, Tailàndia

latitud: 12-16-28N, longitud: 102-19-08E, altitud: 32 m

Observació

L'informe es va fer fa 11 hores i 4 minuts, a les 09:00 UTC
Vent 10 kt del Sud-Oest
Temperatura 29°C
Humitat 70%
Pressió 1008 hPa
Visibilitat: 8000 m
Escasses núvols a una alçada de 2000 ft

METAR: VTBO 240900Z 22010KT 8000 FEW020 29/23 Q1008

Hora: 03:04 (20:04 UTC)

Pronòstic

L'informe es va fer fa 3 hores i 4 minuts, a les 17:00 UTC
Pronòstic vàlid del 24 a les 18 UTC al 25 a les 18 UTC
Vent 5 kt del Est/Sud-Est
Visibilitat: 6000 m
Escasses núvols a una alçada de 2000 ft
Evolucionant progressivament
l' 24 a les 20 UTC al 24 a les 22 UTC
Vent kt del Nord
Visibilitat: 3000 m
boirina
Evolucionant progressivament
l' 25 a les 01 UTC al 25 a les 03 UTC
Vent 8 kt del Sud-Oest
Visibilitat: 8000 m

TAF: VTBO 241700Z 2418/2518 12005KT 6000 FEW020 BECMG 2420/2422 00000KT 3000 BR BECMG 2501/2503 23008KT 8000 NSW

Observacions i pronòstics meteorològics de més de 4000 aeroports (METAR i TAF).

Les estacions disponibles són els punts grocs i vermells al mapa.

Posi el ratolí al punt desitjat per veure el nom de l'estació.

Feu clic per veure les observacions i els pronòstics meteorològics.

Per canviar el mapa: feu clic els botons verds amb una creu de color negre per apropar; al botó verd amb un guió per allunyar la imatge; o en les fletxes verdes per a mapes adjacents.


METAR-TAF: